createdAt,value
2023-03-22T00:00:17.422Z,3.63
2023-03-22T00:02:46.201Z,3.87
2023-03-22T00:05:15.635Z,3.70
2023-03-22T00:07:44.377Z,3.60
2023-03-22T00:10:13.033Z,4.63
2023-03-22T00:12:43.044Z,4.20
2023-03-22T00:15:12.467Z,4.20
2023-03-22T00:17:42.046Z,4.67
2023-03-22T00:20:11.741Z,4.30
2023-03-22T00:22:40.463Z,3.80
2023-03-22T00:25:09.448Z,4.77
2023-03-22T00:27:38.117Z,4.50
2023-03-22T00:30:10.176Z,4.13
2023-03-22T00:32:39.352Z,4.37
2023-03-22T00:35:08.392Z,4.77
2023-03-22T00:37:38.617Z,4.40
2023-03-22T00:40:09.800Z,4.40
2023-03-22T00:42:38.421Z,4.27
2023-03-22T00:45:11.489Z,5.00
2023-03-22T00:47:40.346Z,3.93
2023-03-22T00:50:09.781Z,4.27
2023-03-22T00:52:38.408Z,4.37
2023-03-22T00:55:07.572Z,3.40
2023-03-22T00:57:36.228Z,3.40
2023-03-22T01:00:10.248Z,4.43
2023-03-22T01:02:41.474Z,3.40
2023-03-22T01:05:15.998Z,3.70
2023-03-22T01:07:44.811Z,4.20
2023-03-22T01:10:13.534Z,4.43
2023-03-22T01:12:42.139Z,4.00
2023-03-22T01:15:11.510Z,3.93
2023-03-22T01:17:41.573Z,4.10
2023-03-22T01:20:11.249Z,4.00
2023-03-22T01:22:40.541Z,3.40
2023-03-22T01:25:10.017Z,4.03
2023-03-22T01:27:38.756Z,4.20
2023-03-22T01:30:08.715Z,3.90
2023-03-22T01:32:38.370Z,4.00
2023-03-22T01:35:08.925Z,4.10
2023-03-22T01:37:37.619Z,4.17
2023-03-22T01:40:07.659Z,3.77
2023-03-22T01:42:36.315Z,4.13
2023-03-22T01:45:31.215Z,4.00
2023-03-22T01:48:02.912Z,4.50
2023-03-22T01:50:33.017Z,4.03
2023-03-22T01:53:05.149Z,3.70
2023-03-22T01:55:34.290Z,3.80
2023-03-22T01:58:03.567Z,3.90
2023-03-22T02:00:32.665Z,3.97
2023-03-22T02:03:01.338Z,3.83
2023-03-22T02:05:30.519Z,3.80
2023-03-22T02:08:00.985Z,4.00
2023-03-22T02:10:29.793Z,4.87
2023-03-22T02:13:08.348Z,3.90
2023-03-22T02:15:39.944Z,3.77
2023-03-22T02:18:20.299Z,3.90
2023-03-22T02:21:22.630Z,5.10
2023-03-22T02:24:24.779Z,3.93
2023-03-22T02:27:17.474Z,4.50
2023-03-22T02:29:49.351Z,3.90
2023-03-22T02:33:08.657Z,3.97
2023-03-22T02:35:47.416Z,4.07
2023-03-22T02:38:31.797Z,4.87
2023-03-22T02:41:10.618Z,4.00
2023-03-22T02:43:46.122Z,4.00
2023-03-22T02:46:19.410Z,4.07
2023-03-22T02:48:54.545Z,4.33
2023-03-22T02:51:26.079Z,4.13
2023-03-22T02:53:57.875Z,3.93
2023-03-22T02:56:31.182Z,3.80
2023-03-22T02:59:01.834Z,3.50
2023-03-22T03:01:32.198Z,3.80
2023-03-22T03:04:04.719Z,3.87
2023-03-22T03:06:35.743Z,3.53
2023-03-22T03:09:05.149Z,4.97
2023-03-22T03:11:35.145Z,4.00
2023-03-22T03:14:03.788Z,4.37
2023-03-22T03:16:34.632Z,4.30
2023-03-22T03:19:09.284Z,4.23
2023-03-22T03:21:45.271Z,3.87
2023-03-22T03:24:20.023Z,3.70
2023-03-22T03:26:55.906Z,3.70
2023-03-22T03:29:34.122Z,4.50
2023-03-22T03:32:06.418Z,4.17
2023-03-22T03:34:37.092Z,4.00
2023-03-22T03:37:08.207Z,3.90
2023-03-22T03:39:39.860Z,4.20
2023-03-22T03:42:13.001Z,4.40
2023-03-22T03:44:41.916Z,3.57
2023-03-22T03:47:12.012Z,4.20
2023-03-22T03:49:41.944Z,4.33
2023-03-22T03:52:10.927Z,3.73
2023-03-22T03:54:39.692Z,3.90
2023-03-22T03:57:09.686Z,4.60
2023-03-22T03:59:38.271Z,3.50
2023-03-22T04:02:06.855Z,4.70
2023-03-22T04:04:35.696Z,4.20
2023-03-22T04:07:07.094Z,4.53
2023-03-22T04:09:37.240Z,4.40
2023-03-22T04:12:06.480Z,4.40
2023-03-22T04:14:36.700Z,4.87
2023-03-22T04:17:05.291Z,4.40
2023-03-22T04:19:34.021Z,5.20
2023-03-22T04:22:02.711Z,4.57
2023-03-22T04:24:31.342Z,5.13
2023-03-22T04:26:59.926Z,4.40
2023-03-22T04:29:32.200Z,4.90
2023-03-22T04:32:02.152Z,4.80
2023-03-22T04:34:31.582Z,4.40
2023-03-22T04:37:02.548Z,4.77
2023-03-22T04:39:31.237Z,4.70
2023-03-22T04:41:59.902Z,4.50
2023-03-22T04:44:28.849Z,5.13
2023-03-22T04:46:57.548Z,6.37
2023-03-22T04:49:27.736Z,5.33
2023-03-22T04:51:56.756Z,5.13
2023-03-22T04:54:25.761Z,5.63
2023-03-22T04:56:54.427Z,4.33
2023-03-22T04:59:23.088Z,5.10
2023-03-22T05:01:52.520Z,4.40
2023-03-22T05:04:21.273Z,5.03
2023-03-22T05:06:51.288Z,4.47
2023-03-22T05:09:22.172Z,4.67
2023-03-22T05:11:51.979Z,4.80
2023-03-22T05:14:20.684Z,4.80
2023-03-22T05:16:49.412Z,4.67
2023-03-22T05:19:22.417Z,4.60
2023-03-22T05:21:57.872Z,4.60
2023-03-22T05:24:26.618Z,4.50
2023-03-22T05:26:55.215Z,4.83
2023-03-22T05:29:24.379Z,4.30
2023-03-22T05:31:53.103Z,5.10
2023-03-22T05:34:21.949Z,4.90
2023-03-22T05:36:52.452Z,5.53
2023-03-22T05:39:21.127Z,4.80
2023-03-22T05:41:49.668Z,5.27
2023-03-22T05:44:18.283Z,5.10
2023-03-22T05:46:46.973Z,5.33
2023-03-22T05:49:15.607Z,4.40
2023-03-22T05:51:44.341Z,4.83
2023-03-22T05:54:14.354Z,4.60
2023-03-22T05:56:44.093Z,3.83
2023-03-22T05:59:12.661Z,4.53
2023-03-22T06:01:41.306Z,5.37
2023-03-22T06:04:09.988Z,5.20
2023-03-22T06:06:39.263Z,5.13
2023-03-22T06:09:16.835Z,4.50
2023-03-22T06:11:47.458Z,4.80
2023-03-22T06:14:16.117Z,4.57
2023-03-22T06:16:44.840Z,4.70
2023-03-22T06:19:13.537Z,5.50
2023-03-22T06:21:42.364Z,6.20
2023-03-22T06:24:11.146Z,5.03
2023-03-22T06:26:39.772Z,5.70
2023-03-22T06:29:09.794Z,5.10
2023-03-22T06:31:38.427Z,5.30
2023-03-22T06:34:07.201Z,4.83
2023-03-22T06:36:35.790Z,5.40
2023-03-22T06:39:05.232Z,4.80
2023-03-22T06:41:33.879Z,5.27
2023-03-22T06:44:03.569Z,5.80
2023-03-22T06:46:33.529Z,5.27
2023-03-22T06:49:02.200Z,5.60
2023-03-22T06:51:30.883Z,5.50
2023-03-22T06:53:59.664Z,5.20
2023-03-22T06:56:28.320Z,5.50
2023-03-22T06:58:58.019Z,5.20
2023-03-22T07:01:26.713Z,5.57
2023-03-22T07:03:56.727Z,5.43
2023-03-22T07:06:25.455Z,5.10
2023-03-22T07:08:54.139Z,5.20
2023-03-22T07:11:22.926Z,4.80
2023-03-22T07:13:51.692Z,4.30
2023-03-22T07:16:20.427Z,5.10
2023-03-22T07:18:49.255Z,4.70
2023-03-22T07:21:19.247Z,4.70
2023-03-22T07:23:47.914Z,4.97
2023-03-22T07:26:16.518Z,3.70
2023-03-22T07:28:46.084Z,3.90
2023-03-22T07:31:15.387Z,5.20
2023-03-22T07:33:44.210Z,4.57
2023-03-22T07:36:13.233Z,3.83
2023-03-22T07:38:43.140Z,4.30
2023-03-22T07:41:11.723Z,3.73
2023-03-22T07:43:52.772Z,4.10
2023-03-22T07:46:24.026Z,4.27
2023-03-22T07:48:52.684Z,3.83
2023-03-22T07:51:21.296Z,4.00
2023-03-22T07:53:51.265Z,3.93
2023-03-22T07:56:19.897Z,4.30
2023-03-22T07:58:48.564Z,4.60
2023-03-22T08:01:17.272Z,6.07
2023-03-22T08:03:46.161Z,4.13
2023-03-22T08:06:16.304Z,4.20
2023-03-22T08:08:45.036Z,4.17
2023-03-22T08:11:15.000Z,4.77
2023-03-22T08:13:43.628Z,3.47
2023-03-22T08:16:12.275Z,3.90
2023-03-22T08:18:42.160Z,4.27
2023-03-22T08:21:12.194Z,4.00
2023-03-22T08:23:42.359Z,3.47
2023-03-22T08:26:11.840Z,3.33
2023-03-22T08:28:42.010Z,3.07
2023-03-22T08:31:13.898Z,3.60
2023-03-22T08:33:44.367Z,2.97
2023-03-22T08:36:15.715Z,3.10
2023-03-22T08:38:45.175Z,2.60
2023-03-22T08:41:15.773Z,2.40
2023-03-22T08:43:45.819Z,2.33
2023-03-22T08:46:14.553Z,2.57
2023-03-22T08:48:50.342Z,2.50
2023-03-22T08:51:19.482Z,2.20
2023-03-22T08:53:48.399Z,2.73
2023-03-22T08:56:17.526Z,2.47
2023-03-22T08:58:47.711Z,2.60
2023-03-22T09:01:20.414Z,2.30
2023-03-22T09:03:49.102Z,2.40
2023-03-22T09:06:17.747Z,1.97
2023-03-22T09:08:46.970Z,2.00
2023-03-22T09:11:17.785Z,2.30
2023-03-22T09:13:48.124Z,2.17
2023-03-22T09:16:17.158Z,1.90
2023-03-22T09:18:45.906Z,1.73
2023-03-22T09:21:14.563Z,1.47
2023-03-22T09:23:47.563Z,1.37
2023-03-22T09:26:16.197Z,0.90
2023-03-22T09:28:45.966Z,1.40
2023-03-22T09:31:17.007Z,1.07
2023-03-22T09:33:47.199Z,1.10
2023-03-22T09:36:15.907Z,1.10
2023-03-22T09:38:45.385Z,1.23
2023-03-22T09:41:18.370Z,1.10
2023-03-22T09:43:50.567Z,1.00
2023-03-22T09:46:25.882Z,1.80
2023-03-22T09:48:54.750Z,1.00
2023-03-22T09:51:30.800Z,0.80
2023-03-22T09:53:59.440Z,1.07
2023-03-22T09:56:30.956Z,0.97
2023-03-22T09:59:05.170Z,0.70
2023-03-22T10:01:40.748Z,1.33
2023-03-22T10:04:44.956Z,0.80
2023-03-22T10:07:27.070Z,0.93
2023-03-22T10:10:05.846Z,0.80
2023-03-22T10:12:39.126Z,1.10
2023-03-22T10:15:13.128Z,0.97
2023-03-22T10:17:47.402Z,1.07
2023-03-22T10:20:25.443Z,1.10
2023-03-22T10:22:55.816Z,0.80
2023-03-22T10:25:29.236Z,0.80
2023-03-22T10:27:58.943Z,0.80
2023-03-22T10:30:29.045Z,0.90
2023-03-22T10:33:02.929Z,1.00
2023-03-22T10:35:32.754Z,1.17
2023-03-22T10:38:03.667Z,1.10
2023-03-22T10:40:34.049Z,0.70
2023-03-22T10:43:05.476Z,1.03
2023-03-22T10:45:36.172Z,0.93
2023-03-22T10:48:10.709Z,0.90
2023-03-22T10:50:41.337Z,0.80
2023-03-22T10:53:13.890Z,1.00
2023-03-22T10:55:44.011Z,0.70
2023-03-22T10:58:14.729Z,1.10
2023-03-22T11:00:48.168Z,1.00
2023-03-22T11:03:28.494Z,1.00
2023-03-22T11:06:07.841Z,0.90
2023-03-22T11:08:40.417Z,1.00
2023-03-22T11:11:18.094Z,1.20
2023-03-22T11:13:52.078Z,1.30
2023-03-22T11:16:21.081Z,0.90
2023-03-22T11:18:51.194Z,0.97
2023-03-22T11:21:21.226Z,0.90
2023-03-22T11:23:55.996Z,0.77
2023-03-22T11:26:31.185Z,0.80
2023-03-22T11:29:06.702Z,0.70
2023-03-22T11:31:57.418Z,1.00
2023-03-22T11:34:29.569Z,0.90
2023-03-22T11:37:01.077Z,0.80
2023-03-22T11:39:30.598Z,0.73
2023-03-22T11:42:01.486Z,1.10
2023-03-22T11:44:34.085Z,0.90
2023-03-22T11:47:04.478Z,0.93
2023-03-22T11:49:40.142Z,0.90
2023-03-22T11:52:11.137Z,1.00
2023-03-22T11:54:42.252Z,0.77
2023-03-22T11:57:15.466Z,1.00
2023-03-22T11:59:48.707Z,1.00
2023-03-22T12:02:21.705Z,0.90
2023-03-22T12:04:57.356Z,0.90
2023-03-22T12:07:26.583Z,0.90
2023-03-22T12:10:00.244Z,0.87
2023-03-22T12:12:31.732Z,0.80
2023-03-22T12:15:02.409Z,0.80
2023-03-22T12:17:36.629Z,0.80
2023-03-22T12:20:13.960Z,1.17
2023-03-22T12:22:47.710Z,0.90
2023-03-22T12:25:18.450Z,1.07
2023-03-22T12:27:49.624Z,0.90
2023-03-22T12:30:21.242Z,1.00
2023-03-22T12:32:52.476Z,0.90
2023-03-22T12:35:26.279Z,0.80
2023-03-22T12:37:57.117Z,0.80
2023-03-22T12:40:27.416Z,0.80
2023-03-22T12:43:01.725Z,1.10
2023-03-22T12:45:32.326Z,0.97
2023-03-22T12:48:06.277Z,0.80
2023-03-22T12:50:40.857Z,0.90
2023-03-22T12:53:14.134Z,0.90
2023-03-22T12:55:43.600Z,0.93
2023-03-22T12:58:17.999Z,0.87
2023-03-22T13:00:49.002Z,1.00
2023-03-22T13:03:24.548Z,1.20
2023-03-22T13:06:03.380Z,0.87
2023-03-22T13:09:05.250Z,0.80
2023-03-22T13:11:33.870Z,0.90
2023-03-22T13:14:02.550Z,0.70
2023-03-22T13:16:49.610Z,0.97
2023-03-22T13:19:28.679Z,0.80
2023-03-22T13:22:21.042Z,0.93
2023-03-22T13:25:01.042Z,0.80
2023-03-22T13:27:40.231Z,1.00
2023-03-22T13:30:17.183Z,0.73
2023-03-22T13:32:51.634Z,0.80
2023-03-22T13:35:27.934Z,0.80
2023-03-22T13:38:03.807Z,0.80
2023-03-22T13:40:37.699Z,0.90
2023-03-22T13:43:26.204Z,0.70
2023-03-22T13:46:04.426Z,0.80
2023-03-22T13:48:43.337Z,1.00
2023-03-22T13:51:13.789Z,0.77
2023-03-22T13:53:47.352Z,0.80
2023-03-22T13:56:30.525Z,0.87
2023-03-22T13:58:59.540Z,1.00
2023-03-22T14:01:30.994Z,0.90
2023-03-22T14:04:01.461Z,0.70
2023-03-22T14:06:33.694Z,0.80
2023-03-22T14:09:06.240Z,0.87
2023-03-22T14:11:40.340Z,1.00
2023-03-22T14:14:12.717Z,1.20
2023-03-22T14:16:43.159Z,0.90
2023-03-22T14:19:18.716Z,0.93
